sensor_id;sensor_type;location;lat;lon;timestamp;temperature;humidity
59469;DHT22;45277;52.768;18.262;2023-08-01T00:00:51;19.50;99.90
59469;DHT22;45277;52.768;18.262;2023-08-01T00:02:31;19.50;99.90
59469;DHT22;45277;52.768;18.262;2023-08-01T00:04:03;19.50;99.90
59469;DHT22;45277;52.768;18.262;2023-08-01T00:05:34;19.50;99.90
59469;DHT22;45277;52.768;18.262;2023-08-01T00:07:06;19.60;99.90
59469;DHT22;45277;52.768;18.262;2023-08-01T00:08:37;19.50;99.90
59469;DHT22;45277;52.768;18.262;2023-08-01T00:10:09;19.50;99.90
59469;DHT22;45277;52.768;18.262;2023-08-01T00:11:40;19.50;99.90
59469;DHT22;45277;52.768;18.262;2023-08-01T00:13:12;19.50;99.90
59469;DHT22;45277;52.768;18.262;2023-08-01T00:14:43;19.50;99.90
59469;DHT22;45277;52.768;18.262;2023-08-01T00:16:15;19.40;99.90
59469;DHT22;45277;52.768;18.262;2023-08-01T00:17:47;19.40;99.90
59469;DHT22;45277;52.768;18.262;2023-08-01T00:19:18;19.40;99.90
59469;DHT22;45277;52.768;18.262;2023-08-01T00:20:52;19.40;99.90
59469;DHT22;45277;52.768;18.262;2023-08-01T00:22:25;19.40;99.90
59469;DHT22;45277;52.768;18.262;2023-08-01T00:23:58;19.40;99.90
59469;DHT22;45277;52.768;18.262;2023-08-01T00:25:29;19.40;99.90
59469;DHT22;45277;52.768;18.262;2023-08-01T00:27:01;19.40;99.90
59469;DHT22;45277;52.768;18.262;2023-08-01T00:28:33;19.30;99.90
59469;DHT22;45277;52.768;18.262;2023-08-01T00:30:04;19.40;99.90
59469;DHT22;45277;52.768;18.262;2023-08-01T00:31:36;19.30;99.90
59469;DHT22;45277;52.768;18.262;2023-08-01T00:33:07;19.30;99.90
59469;DHT22;45277;52.768;18.262;2023-08-01T00:34:39;19.20;99.90
59469;DHT22;45277;52.768;18.262;2023-08-01T00:36:10;19.20;99.90
59469;DHT22;45277;52.768;18.262;2023-08-01T00:37:42;19.20;99.90
59469;DHT22;45277;52.768;18.262;2023-08-01T00:39:13;19.20;99.90
59469;DHT22;45277;52.768;18.262;2023-08-01T00:40:45;19.20;99.90
59469;DHT22;45277;52.768;18.262;2023-08-01T00:42:16;19.10;99.90
59469;DHT22;45277;52.768;18.262;2023-08-01T00:43:47;19.10;99.90
59469;DHT22;45277;52.768;18.262;2023-08-01T00:45:19;19.10;99.90
59469;DHT22;45277;52.768;18.262;2023-08-01T00:46:50;19.00;99.90
59469;DHT22;45277;52.768;18.262;2023-08-01T00:48:22;19.00;99.90
59469;DHT22;45277;52.768;18.262;2023-08-01T00:49:54;19.00;99.90
59469;DHT22;45277;52.768;18.262;2023-08-01T00:51:26;19.00;99.90
59469;DHT22;45277;52.768;18.262;2023-08-01T00:52:59;18.90;99.90
59469;DHT22;45277;52.768;18.262;2023-08-01T00:54:31;18.90;99.90
59469;DHT22;45277;52.768;18.262;2023-08-01T00:56:07;18.80;99.90
59469;DHT22;45277;52.768;18.262;2023-08-01T00:57:39;18.80;99.90
59469;DHT22;45277;52.768;18.262;2023-08-01T00:59:12;18.80;99.90
59469;DHT22;45277;52.768;18.262;2023-08-01T01:03:27;18.70;99.90
59469;DHT22;45277;52.768;18.262;2023-08-01T01:04:59;18.60;99.90
59469;DHT22;45277;52.768;18.262;2023-08-01T01:06:40;18.60;99.90
59469;DHT22;45277;52.768;18.262;2023-08-01T01:08:13;18.60;99.90
59469;DHT22;45277;52.768;18.262;2023-08-01T01:09:45;18.50;99.90
59469;DHT22;45277;52.768;18.262;2023-08-01T01:11:16;18.50;99.90
59469;DHT22;45277;52.768;18.262;2023-08-01T01:12:48;18.50;99.90
59469;DHT22;45277;52.768;18.262;2023-08-01T01:14:21;18.50;99.90
59469;DHT22;45277;52.768;18.262;2023-08-01T01:15:53;18.40;99.90
59469;DHT22;45277;52.768;18.262;2023-08-01T01:17:24;18.50;99.90
59469;DHT22;45277;52.768;18.262;2023-08-01T01:18:56;18.40;99.90
59469;DHT22;45277;52.768;18.262;2023-08-01T01:20:34;18.40;99.90
59469;DHT22;45277;52.768;18.262;2023-08-01T01:22:07;18.40;99.90
59469;DHT22;45277;52.768;18.262;2023-08-01T01:23:41;18.40;99.90
59469;DHT22;45277;52.768;18.262;2023-08-01T01:25:14;18.40;99.90
59469;DHT22;45277;52.768;18.262;2023-08-01T01:26:46;18.40;99.90
59469;DHT22;45277;52.768;18.262;2023-08-01T01:28:19;18.40;99.90
59469;DHT22;45277;52.768;18.262;2023-08-01T01:29:51;18.40;99.90
59469;DHT22;45277;52.768;18.262;2023-08-01T01:31:23;18.40;99.90
59469;DHT22;45277;52.768;18.262;2023-08-01T01:32:54;18.40;99.90
59469;DHT22;45277;52.768;18.262;2023-08-01T01:34:27;18.40;99.90
59469;DHT22;45277;52.768;18.262;2023-08-01T01:36:00;18.40;99.90
59469;DHT22;45277;52.768;18.262;2023-08-01T01:37:33;18.40;99.90
59469;DHT22;45277;52.768;18.262;2023-08-01T01:39:04;18.40;99.90
59469;DHT22;45277;52.768;18.262;2023-08-01T01:40:35;18.40;99.90
59469;DHT22;45277;52.768;18.262;2023-08-01T01:42:07;18.30;99.90
59469;DHT22;45277;52.768;18.262;2023-08-01T01:43:38;18.30;99.90
59469;DHT22;45277;52.768;18.262;2023-08-01T01:45:10;18.30;99.90
59469;DHT22;45277;52.768;18.262;2023-08-01T01:46:41;18.30;99.90
59469;DHT22;45277;52.768;18.262;2023-08-01T01:48:12;18.30;99.90
59469;DHT22;45277;52.768;18.262;2023-08-01T01:49:44;18.30;99.90
59469;DHT22;45277;52.768;18.262;2023-08-01T01:51:15;18.30;99.90
59469;DHT22;45277;52.768;18.262;2023-08-01T01:52:47;18.30;99.90
59469;DHT22;45277;52.768;18.262;2023-08-01T01:54:18;18.30;99.90
59469;DHT22;45277;52.768;18.262;2023-08-01T01:55:49;18.20;99.90
59469;DHT22;45277;52.768;18.262;2023-08-01T01:57:21;18.20;99.90
59469;DHT22;45277;52.768;18.262;2023-08-01T01:58:52;18.20;99.90
59469;DHT22;45277;52.768;18.262;2023-08-01T02:00:23;18.20;99.90
59469;DHT22;45277;52.768;18.262;2023-08-01T02:01:55;18.10;99.90
59469;DHT22;45277;52.768;18.262;2023-08-01T02:03:26;18.10;99.90
59469;DHT22;45277;52.768;18.262;2023-08-01T02:04:58;18.10;99.90
59469;DHT22;45277;52.768;18.262;2023-08-01T02:06:29;18.10;99.90
59469;DHT22;45277;52.768;18.262;2023-08-01T02:08:00;18.10;99.90
59469;DHT22;45277;52.768;18.262;2023-08-01T02:09:32;18.10;99.90
59469;DHT22;45277;52.768;18.262;2023-08-01T02:11:03;18.10;99.90
59469;DHT22;45277;52.768;18.262;2023-08-01T02:12:34;18.10;99.90
59469;DHT22;45277;52.768;18.262;2023-08-01T02:14:06;18.10;99.90
59469;DHT22;45277;52.768;18.262;2023-08-01T02:15:38;18.10;99.90
59469;DHT22;45277;52.768;18.262;2023-08-01T02:17:09;18.10;99.90
59469;DHT22;45277;52.768;18.262;2023-08-01T02:18:40;18.00;99.90
59469;DHT22;45277;52.768;18.262;2023-08-01T02:20:12;18.00;99.90
59469;DHT22;45277;52.768;18.262;2023-08-01T02:21:43;18.00;99.90
59469;DHT22;45277;52.768;18.262;2023-08-01T02:23:14;18.00;99.90
59469;DHT22;45277;52.768;18.262;2023-08-01T02:24:46;18.00;99.90
59469;DHT22;45277;52.768;18.262;2023-08-01T02:26:17;18.00;99.90
59469;DHT22;45277;52.768;18.262;2023-08-01T02:27:48;18.00;99.90
59469;DHT22;45277;52.768;18.262;2023-08-01T02:29:20;18.00;99.90
59469;DHT22;45277;52.768;18.262;2023-08-01T02:30:51;18.00;99.90
59469;DHT22;45277;52.768;18.262;2023-08-01T02:32:23;18.00;99.90
59469;DHT22;45277;52.768;18.262;2023-08-01T02:33:54;18.00;99.90
59469;DHT22;45277;52.768;18.262;2023-08-01T02:35:25;17.90;99.90
59469;DHT22;45277;52.768;18.262;2023-08-01T02:36:57;18.00;99.90
59469;DHT22;45277;52.768;18.262;2023-08-01T02:38:28;18.00;99.90
59469;DHT22;45277;52.768;18.262;2023-08-01T02:40:00;17.90;99.90
59469;DHT22;45277;52.768;18.262;2023-08-01T02:41:32;18.00;99.90
59469;DHT22;45277;52.768;18.262;2023-08-01T02:43:04;18.00;99.90
59469;DHT22;45277;52.768;18.262;2023-08-01T02:44:35;18.00;99.90
59469;DHT22;45277;52.768;18.262;2023-08-01T02:46:06;18.00;99.90
59469;DHT22;45277;52.768;18.262;2023-08-01T02:47:38;18.00;99.90
59469;DHT22;45277;52.768;18.262;2023-08-01T02:49:09;18.00;99.90
59469;DHT22;45277;52.768;18.262;2023-08-01T02:50:41;18.00;99.90
59469;DHT22;45277;52.768;18.262;2023-08-01T02:52:12;18.00;99.90
59469;DHT22;45277;52.768;18.262;2023-08-01T02:53:43;18.00;99.90
59469;DHT22;45277;52.768;18.262;2023-08-01T02:55:15;18.00;99.90
59469;DHT22;45277;52.768;18.262;2023-08-01T02:56:46;18.00;99.90
59469;DHT22;45277;52.768;18.262;2023-08-01T02:58:17;18.00;99.90
59469;DHT22;45277;52.768;18.262;2023-08-01T02:59:49;18.00;99.90
59469;DHT22;45277;52.768;18.262;2023-08-01T03:01:20;18.10;99.90
59469;DHT22;45277;52.768;18.262;2023-08-01T03:02:51;18.10;99.90
59469;DHT22;45277;52.768;18.262;2023-08-01T03:04:23;18.10;99.90
59469;DHT22;45277;52.768;18.262;2023-08-01T03:05:54;18.10;99.90
59469;DHT22;45277;52.768;18.262;2023-08-01T03:07:25;18.10;99.90
59469;DHT22;45277;52.768;18.262;2023-08-01T03:08:57;18.10;99.90
59469;DHT22;45277;52.768;18.262;2023-08-01T03:10:28;18.20;99.90
59469;DHT22;45277;52.768;18.262;2023-08-01T03:12:00;18.20;99.90
59469;DHT22;45277;52.768;18.262;2023-08-01T03:13:31;18.20;99.90
59469;DHT22;45277;52.768;18.262;2023-08-01T03:15:03;18.20;99.90
59469;DHT22;45277;52.768;18.262;2023-08-01T03:16:35;18.30;99.90
59469;DHT22;45277;52.768;18.262;2023-08-01T03:18:06;18.30;99.90
59469;DHT22;45277;52.768;18.262;2023-08-01T03:19:37;18.30;99.90
59469;DHT22;45277;52.768;18.262;2023-08-01T03:21:10;18.40;99.90
59469;DHT22;45277;52.768;18.262;2023-08-01T03:22:42;18.40;99.90
59469;DHT22;45277;52.768;18.262;2023-08-01T03:24:13;18.40;99.90
59469;DHT22;45277;52.768;18.262;2023-08-01T03:25:44;18.40;99.90
59469;DHT22;45277;52.768;18.262;2023-08-01T03:27:16;18.40;99.90
59469;DHT22;45277;52.768;18.262;2023-08-01T03:28:47;18.40;99.90
59469;DHT22;45277;52.768;18.262;2023-08-01T03:30:19;18.40;99.90
59469;DHT22;45277;52.768;18.262;2023-08-01T03:31:52;18.40;99.90
59469;DHT22;45277;52.768;18.262;2023-08-01T03:33:23;18.50;99.90
59469;DHT22;45277;52.768;18.262;2023-08-01T03:34:55;18.50;99.90
59469;DHT22;45277;52.768;18.262;2023-08-01T03:36:26;18.50;99.90
59469;DHT22;45277;52.768;18.262;2023-08-01T03:37:57;18.50;99.90
59469;DHT22;45277;52.768;18.262;2023-08-01T03:39:29;18.50;99.90
59469;DHT22;45277;52.768;18.262;2023-08-01T03:41:00;18.50;99.90
59469;DHT22;45277;52.768;18.262;2023-08-01T03:42:32;18.50;99.90
59469;DHT22;45277;52.768;18.262;2023-08-01T03:44:03;18.50;99.90
59469;DHT22;45277;52.768;18.262;2023-08-01T03:45:35;18.50;99.90
59469;DHT22;45277;52.768;18.262;2023-08-01T03:47:06;18.50;99.90
59469;DHT22;45277;52.768;18.262;2023-08-01T03:48:38;18.50;99.90
59469;DHT22;45277;52.768;18.262;2023-08-01T03:50:10;18.50;99.90
59469;DHT22;45277;52.768;18.262;2023-08-01T03:51:41;18.40;99.90
59469;DHT22;45277;52.768;18.262;2023-08-01T03:53:12;18.40;99.90
59469;DHT22;45277;52.768;18.262;2023-08-01T03:54:44;18.40;99.90
59469;DHT22;45277;52.768;18.262;2023-08-01T03:56:15;18.40;99.90
59469;DHT22;45277;52.768;18.262;2023-08-01T03:57:46;18.40;99.90
59469;DHT22;45277;52.768;18.262;2023-08-01T03:59:18;18.40;99.90
59469;DHT22;45277;52.768;18.262;2023-08-01T04:00:49;18.30;99.90
59469;DHT22;45277;52.768;18.262;2023-08-01T04:02:20;18.30;99.90
59469;DHT22;45277;52.768;18.262;2023-08-01T04:03:52;18.30;99.90
59469;DHT22;45277;52.768;18.262;2023-08-01T04:05:23;18.20;99.90
59469;DHT22;45277;52.768;18.262;2023-08-01T04:06:55;18.20;99.90
59469;DHT22;45277;52.768;18.262;2023-08-01T04:08:26;18.30;99.90
59469;DHT22;45277;52.768;18.262;2023-08-01T04:09:58;18.20;99.90
59469;DHT22;45277;52.768;18.262;2023-08-01T04:11:29;18.20;99.90
59469;DHT22;45277;52.768;18.262;2023-08-01T04:13:01;18.20;99.90
59469;DHT22;45277;52.768;18.262;2023-08-01T04:14:33;18.20;99.90
59469;DHT22;45277;52.768;18.262;2023-08-01T04:16:04;18.20;99.90
59469;DHT22;45277;52.768;18.262;2023-08-01T04:17:36;18.20;99.90
59469;DHT22;45277;52.768;18.262;2023-08-01T04:19:07;18.20;99.90
59469;DHT22;45277;52.768;18.262;2023-08-01T04:20:38;18.20;99.90
59469;DHT22;45277;52.768;18.262;2023-08-01T04:22:10;18.20;99.90
59469;DHT22;45277;52.768;18.262;2023-08-01T04:23:41;18.20;99.90
59469;DHT22;45277;52.768;18.262;2023-08-01T04:25:12;18.20;99.90
59469;DHT22;45277;52.768;18.262;2023-08-01T04:26:44;18.30;99.90
59469;DHT22;45277;52.768;18.262;2023-08-01T04:28:15;18.20;99.90
59469;DHT22;45277;52.768;18.262;2023-08-01T04:29:47;18.20;99.90
59469;DHT22;45277;52.768;18.262;2023-08-01T04:31:18;18.30;99.90
59469;DHT22;45277;52.768;18.262;2023-08-01T04:32:50;18.20;99.90
59469;DHT22;45277;52.768;18.262;2023-08-01T04:34:21;18.30;99.90
59469;DHT22;45277;52.768;18.262;2023-08-01T04:35:53;18.20;99.90
59469;DHT22;45277;52.768;18.262;2023-08-01T04:37:24;18.20;99.90
59469;DHT22;45277;52.768;18.262;2023-08-01T04:38:56;18.20;99.90
59469;DHT22;45277;52.768;18.262;2023-08-01T04:40:28;18.20;99.90
59469;DHT22;45277;52.768;18.262;2023-08-01T04:41:59;18.20;99.90
59469;DHT22;45277;52.768;18.262;2023-08-01T04:43:30;18.20;99.90
59469;DHT22;45277;52.768;18.262;2023-08-01T04:45:02;18.30;99.90
59469;DHT22;45277;52.768;18.262;2023-08-01T04:46:34;18.20;99.90
59469;DHT22;45277;52.768;18.262;2023-08-01T04:48:05;18.30;99.90
59469;DHT22;45277;52.768;18.262;2023-08-01T04:49:37;18.20;99.90
59469;DHT22;45277;52.768;18.262;2023-08-01T04:51:08;18.20;99.90
59469;DHT22;45277;52.768;18.262;2023-08-01T04:52:39;18.10;99.90
59469;DHT22;45277;52.768;18.262;2023-08-01T04:54:11;18.00;99.90
59469;DHT22;45277;52.768;18.262;2023-08-01T04:55:42;18.00;99.90
59469;DHT22;45277;52.768;18.262;2023-08-01T04:57:13;17.90;99.90
59469;DHT22;45277;52.768;18.262;2023-08-01T04:58:45;17.90;99.90
59469;DHT22;45277;52.768;18.262;2023-08-01T05:00:17;17.80;99.90
59469;DHT22;45277;52.768;18.262;2023-08-01T05:01:48;17.80;99.90
59469;DHT22;45277;52.768;18.262;2023-08-01T05:03:20;17.70;99.90
59469;DHT22;45277;52.768;18.262;2023-08-01T05:04:51;17.60;99.90
59469;DHT22;45277;52.768;18.262;2023-08-01T05:06:23;17.50;99.90
59469;DHT22;45277;52.768;18.262;2023-08-01T05:07:54;17.50;99.90
59469;DHT22;45277;52.768;18.262;2023-08-01T05:09:25;17.40;99.90
59469;DHT22;45277;52.768;18.262;2023-08-01T05:10:57;17.30;99.90
59469;DHT22;45277;52.768;18.262;2023-08-01T05:12:28;17.30;99.90
59469;DHT22;45277;52.768;18.262;2023-08-01T05:14:00;17.30;99.90
59469;DHT22;45277;52.768;18.262;2023-08-01T05:15:31;17.30;99.90
59469;DHT22;45277;52.768;18.262;2023-08-01T05:17:03;17.30;99.90
59469;DHT22;45277;52.768;18.262;2023-08-01T05:18:34;17.30;99.90
59469;DHT22;45277;52.768;18.262;2023-08-01T05:20:06;17.30;99.90
59469;DHT22;45277;52.768;18.262;2023-08-01T05:21:38;17.20;99.90
59469;DHT22;45277;52.768;18.262;2023-08-01T05:23:09;17.20;99.90
59469;DHT22;45277;52.768;18.262;2023-08-01T05:24:40;17.20;99.90
59469;DHT22;45277;52.768;18.262;2023-08-01T05:26:12;17.20;99.90
59469;DHT22;45277;52.768;18.262;2023-08-01T05:27:43;17.20;99.90
59469;DHT22;45277;52.768;18.262;2023-08-01T05:29:15;17.20;99.90
59469;DHT22;45277;52.768;18.262;2023-08-01T05:30:47;17.20;99.90
59469;DHT22;45277;52.768;18.262;2023-08-01T05:32:18;17.20;99.90
59469;DHT22;45277;52.768;18.262;2023-08-01T05:33:50;17.20;99.90
59469;DHT22;45277;52.768;18.262;2023-08-01T05:35:22;17.20;99.90
59469;DHT22;45277;52.768;18.262;2023-08-01T05:36:53;17.20;99.90
59469;DHT22;45277;52.768;18.262;2023-08-01T05:38:24;17.20;99.90
59469;DHT22;45277;52.768;18.262;2023-08-01T05:39:56;17.20;99.90
59469;DHT22;45277;52.768;18.262;2023-08-01T05:41:27;17.20;99.90
59469;DHT22;45277;52.768;18.262;2023-08-01T05:42:58;17.20;99.90
59469;DHT22;45277;52.768;18.262;2023-08-01T05:44:30;17.20;99.90
59469;DHT22;45277;52.768;18.262;2023-08-01T05:46:01;17.20;99.90
59469;DHT22;45277;52.768;18.262;2023-08-01T05:47:33;17.20;99.90
59469;DHT22;45277;52.768;18.262;2023-08-01T05:49:07;17.10;99.90
59469;DHT22;45277;52.768;18.262;2023-08-01T05:50:38;17.20;99.90
59469;DHT22;45277;52.768;18.262;2023-08-01T05:52:09;17.10;99.90
59469;DHT22;45277;52.768;18.262;2023-08-01T05:53:41;17.10;99.90
59469;DHT22;45277;52.768;18.262;2023-08-01T05:55:12;17.20;99.90
59469;DHT22;45277;52.768;18.262;2023-08-01T05:56:44;17.20;99.90
59469;DHT22;45277;52.768;18.262;2023-08-01T05:58:16;17.20;99.90
59469;DHT22;45277;52.768;18.262;2023-08-01T05:59:48;17.20;99.90
59469;DHT22;45277;52.768;18.262;2023-08-01T06:01:19;17.20;99.90
59469;DHT22;45277;52.768;18.262;2023-08-01T06:02:51;17.20;99.90
59469;DHT22;45277;52.768;18.262;2023-08-01T06:04:22;17.20;99.90
59469;DHT22;45277;52.768;18.262;2023-08-01T06:05:54;17.20;99.90
59469;DHT22;45277;52.768;18.262;2023-08-01T06:07:25;17.20;99.90
59469;DHT22;45277;52.768;18.262;2023-08-01T06:08:57;17.20;99.90
59469;DHT22;45277;52.768;18.262;2023-08-01T06:10:28;17.20;99.90
59469;DHT22;45277;52.768;18.262;2023-08-01T06:12:00;17.20;99.90
59469;DHT22;45277;52.768;18.262;2023-08-01T06:13:31;17.20;99.90
59469;DHT22;45277;52.768;18.262;2023-08-01T06:15:03;17.20;99.90
59469;DHT22;45277;52.768;18.262;2023-08-01T06:16:35;17.20;99.90
59469;DHT22;45277;52.768;18.262;2023-08-01T06:18:06;17.20;99.90
59469;DHT22;45277;52.768;18.262;2023-08-01T06:19:37;17.20;99.90
59469;DHT22;45277;52.768;18.262;2023-08-01T06:21:09;17.20;99.90
59469;DHT22;45277;52.768;18.262;2023-08-01T06:22:41;17.20;99.90
59469;DHT22;45277;52.768;18.262;2023-08-01T06:24:13;17.30;99.90
59469;DHT22;45277;52.768;18.262;2023-08-01T06:25:45;17.30;99.90
59469;DHT22;45277;52.768;18.262;2023-08-01T06:27:16;17.40;99.90
59469;DHT22;45277;52.768;18.262;2023-08-01T06:28:48;17.40;99.90
59469;DHT22;45277;52.768;18.262;2023-08-01T06:30:20;17.50;99.90
59469;DHT22;45277;52.768;18.262;2023-08-01T06:31:51;17.50;99.90
59469;DHT22;45277;52.768;18.262;2023-08-01T06:33:23;17.60;99.90
59469;DHT22;45277;52.768;18.262;2023-08-01T06:34:54;17.60;99.90
59469;DHT22;45277;52.768;18.262;2023-08-01T06:36:26;17.60;99.90
59469;DHT22;45277;52.768;18.262;2023-08-01T06:37:57;17.60;99.90
59469;DHT22;45277;52.768;18.262;2023-08-01T06:39:29;17.50;99.90
59469;DHT22;45277;52.768;18.262;2023-08-01T06:41:01;17.60;99.90
59469;DHT22;45277;52.768;18.262;2023-08-01T06:42:32;17.60;99.90
59469;DHT22;45277;52.768;18.262;2023-08-01T06:44:04;17.60;99.90
59469;DHT22;45277;52.768;18.262;2023-08-01T06:45:35;17.50;99.90
59469;DHT22;45277;52.768;18.262;2023-08-01T06:47:07;17.50;99.90
59469;DHT22;45277;52.768;18.262;2023-08-01T06:48:38;17.50;99.90
59469;DHT22;45277;52.768;18.262;2023-08-01T06:50:10;17.50;99.90
59469;DHT22;45277;52.768;18.262;2023-08-01T06:51:42;17.60;99.90
59469;DHT22;45277;52.768;18.262;2023-08-01T06:53:14;17.70;99.90
59469;DHT22;45277;52.768;18.262;2023-08-01T06:54:45;17.70;99.90
59469;DHT22;45277;52.768;18.262;2023-08-01T06:56:16;17.70;99.90
59469;DHT22;45277;52.768;18.262;2023-08-01T06:57:48;17.60;99.90
59469;DHT22;45277;52.768;18.262;2023-08-01T06:59:19;17.80;99.90
59469;DHT22;45277;52.768;18.262;2023-08-01T07:00:51;17.70;99.90
59469;DHT22;45277;52.768;18.262;2023-08-01T07:02:23;17.70;99.90
59469;DHT22;45277;52.768;18.262;2023-08-01T07:03:56;17.70;99.90
59469;DHT22;45277;52.768;18.262;2023-08-01T07:05:27;17.70;99.90
59469;DHT22;45277;52.768;18.262;2023-08-01T07:06:59;17.70;99.90
59469;DHT22;45277;52.768;18.262;2023-08-01T07:08:30;17.70;99.90
59469;DHT22;45277;52.768;18.262;2023-08-01T07:10:03;17.70;99.90
59469;DHT22;45277;52.768;18.262;2023-08-01T07:11:35;17.80;99.90
59469;DHT22;45277;52.768;18.262;2023-08-01T07:13:06;17.80;99.90
59469;DHT22;45277;52.768;18.262;2023-08-01T07:14:37;17.80;99.90
59469;DHT22;45277;52.768;18.262;2023-08-01T07:16:09;17.80;99.90
59469;DHT22;45277;52.768;18.262;2023-08-01T07:17:40;17.80;99.90
59469;DHT22;45277;52.768;18.262;2023-08-01T07:19:12;17.80;99.90
59469;DHT22;45277;52.768;18.262;2023-08-01T07:20:43;17.80;99.90
59469;DHT22;45277;52.768;18.262;2023-08-01T07:22:15;17.80;99.90
59469;DHT22;45277;52.768;18.262;2023-08-01T07:23:46;17.80;99.90
59469;DHT22;45277;52.768;18.262;2023-08-01T07:25:19;17.80;99.90
59469;DHT22;45277;52.768;18.262;2023-08-01T07:26:51;17.80;99.90
59469;DHT22;45277;52.768;18.262;2023-08-01T07:28:22;17.80;99.90
59469;DHT22;45277;52.768;18.262;2023-08-01T07:29:54;17.80;99.90
59469;DHT22;45277;52.768;18.262;2023-08-01T07:31:25;17.80;99.90
59469;DHT22;45277;52.768;18.262;2023-08-01T07:32:56;17.80;99.90
59469;DHT22;45277;52.768;18.262;2023-08-01T07:34:28;17.90;99.90
59469;DHT22;45277;52.768;18.262;2023-08-01T07:36:00;17.90;99.90
59469;DHT22;45277;52.768;18.262;2023-08-01T07:37:34;18.00;99.90
59469;DHT22;45277;52.768;18.262;2023-08-01T07:39:06;18.00;99.90
59469;DHT22;45277;52.768;18.262;2023-08-01T07:40:38;17.80;99.90
59469;DHT22;45277;52.768;18.262;2023-08-01T07:42:09;17.80;99.90
59469;DHT22;45277;52.768;18.262;2023-08-01T07:43:41;17.70;99.90
59469;DHT22;45277;52.768;18.262;2023-08-01T07:45:13;17.60;99.90
59469;DHT22;45277;52.768;18.262;2023-08-01T07:46:44;17.70;99.90
59469;DHT22;45277;52.768;18.262;2023-08-01T07:48:16;17.70;99.90
59469;DHT22;45277;52.768;18.262;2023-08-01T07:49:48;17.70;99.90
59469;DHT22;45277;52.768;18.262;2023-08-01T07:51:19;17.60;99.90
59469;DHT22;45277;52.768;18.262;2023-08-01T07:52:51;17.60;99.90
59469;DHT22;45277;52.768;18.262;2023-08-01T07:54:24;17.60;99.90
59469;DHT22;45277;52.768;18.262;2023-08-01T07:55:56;17.60;99.90
59469;DHT22;45277;52.768;18.262;2023-08-01T07:57:28;17.50;99.90
59469;DHT22;45277;52.768;18.262;2023-08-01T07:58:59;17.50;99.90
59469;DHT22;45277;52.768;18.262;2023-08-01T08:00:31;17.50;99.90
59469;DHT22;45277;52.768;18.262;2023-08-01T08:02:03;17.60;99.90
59469;DHT22;45277;52.768;18.262;2023-08-01T08:03:34;17.60;99.90
59469;DHT22;45277;52.768;18.262;2023-08-01T08:05:06;17.60;99.90
59469;DHT22;45277;52.768;18.262;2023-08-01T08:06:40;17.50;99.90
59469;DHT22;45277;52.768;18.262;2023-08-01T08:08:15;17.60;99.90
59469;DHT22;45277;52.768;18.262;2023-08-01T08:09:46;17.70;99.90
59469;DHT22;45277;52.768;18.262;2023-08-01T08:11:18;17.80;99.90
59469;DHT22;45277;52.768;18.262;2023-08-01T08:12:50;17.80;99.90
59469;DHT22;45277;52.768;18.262;2023-08-01T08:14:21;17.90;99.90
59469;DHT22;45277;52.768;18.262;2023-08-01T08:15:57;17.80;99.90
59469;DHT22;45277;52.768;18.262;2023-08-01T08:17:29;17.80;99.90
59469;DHT22;45277;52.768;18.262;2023-08-01T08:19:00;17.90;99.90
59469;DHT22;45277;52.768;18.262;2023-08-01T08:20:40;18.00;99.90
59469;DHT22;45277;52.768;18.262;2023-08-01T08:22:12;18.00;99.90
59469;DHT22;45277;52.768;18.262;2023-08-01T08:23:43;18.10;99.90
59469;DHT22;45277;52.768;18.262;2023-08-01T08:25:15;18.30;99.90
59469;DHT22;45277;52.768;18.262;2023-08-01T08:26:46;18.40;99.90
59469;DHT22;45277;52.768;18.262;2023-08-01T08:28:28;18.50;99.90
59469;DHT22;45277;52.768;18.262;2023-08-01T08:30:00;18.50;99.90
59469;DHT22;45277;52.768;18.262;2023-08-01T08:31:32;18.50;99.90
59469;DHT22;45277;52.768;18.262;2023-08-01T08:33:04;18.50;99.90
59469;DHT22;45277;52.768;18.262;2023-08-01T08:34:38;18.60;99.90
59469;DHT22;45277;52.768;18.262;2023-08-01T08:36:10;18.70;99.90
59469;DHT22;45277;52.768;18.262;2023-08-01T08:37:42;18.80;99.90
59469;DHT22;45277;52.768;18.262;2023-08-01T08:39:13;18.90;99.90
59469;DHT22;45277;52.768;18.262;2023-08-01T08:42:35;19.10;99.90
59469;DHT22;45277;52.768;18.262;2023-08-01T08:44:07;19.20;99.90
59469;DHT22;45277;52.768;18.262;2023-08-01T08:45:41;19.30;99.90
59469;DHT22;45277;52.768;18.262;2023-08-01T08:47:17;19.30;99.90
59469;DHT22;45277;52.768;18.262;2023-08-01T08:48:50;19.30;99.90
59469;DHT22;45277;52.768;18.262;2023-08-01T08:50:21;19.40;99.90
59469;DHT22;45277;52.768;18.262;2023-08-01T08:51:54;19.50;99.90
59469;DHT22;45277;52.768;18.262;2023-08-01T08:53:27;19.70;99.90
59469;DHT22;45277;52.768;18.262;2023-08-01T08:54:58;19.80;99.90
59469;DHT22;45277;52.768;18.262;2023-08-01T08:56:29;19.90;99.90
59469;DHT22;45277;52.768;18.262;2023-08-01T08:58:01;20.00;99.90
59469;DHT22;45277;52.768;18.262;2023-08-01T08:59:33;20.20;99.90
59469;DHT22;45277;52.768;18.262;2023-08-01T09:01:05;20.20;99.90
59469;DHT22;45277;52.768;18.262;2023-08-01T09:02:38;20.00;99.90
59469;DHT22;45277;52.768;18.262;2023-08-01T09:04:10;20.10;99.90
59469;DHT22;45277;52.768;18.262;2023-08-01T09:05:51;20.10;99.90
59469;DHT22;45277;52.768;18.262;2023-08-01T09:07:29;20.10;99.90
59469;DHT22;45277;52.768;18.262;2023-08-01T09:09:10;20.10;99.90
59469;DHT22;45277;52.768;18.262;2023-08-01T09:10:41;20.00;99.90
59469;DHT22;45277;52.768;18.262;2023-08-01T09:12:13;19.80;99.90
59469;DHT22;45277;52.768;18.262;2023-08-01T09:13:44;19.70;99.90
59469;DHT22;45277;52.768;18.262;2023-08-01T09:15:16;19.70;99.90
59469;DHT22;45277;52.768;18.262;2023-08-01T09:16:49;19.70;99.90
59469;DHT22;45277;52.768;18.262;2023-08-01T09:18:20;19.70;99.90
59469;DHT22;45277;52.768;18.262;2023-08-01T09:20:07;19.60;99.90
59469;DHT22;45277;52.768;18.262;2023-08-01T09:21:39;19.50;99.90
59469;DHT22;45277;52.768;18.262;2023-08-01T09:23:11;19.60;99.90
59469;DHT22;45277;52.768;18.262;2023-08-01T09:25:08;19.80;99.90
59469;DHT22;45277;52.768;18.262;2023-08-01T09:26:40;19.90;99.90
59469;DHT22;45277;52.768;18.262;2023-08-01T09:28:23;20.00;99.90
59469;DHT22;45277;52.768;18.262;2023-08-01T09:30:05;20.30;99.90
59469;DHT22;45277;52.768;18.262;2023-08-01T09:31:39;20.70;99.90
59469;DHT22;45277;52.768;18.262;2023-08-01T09:33:12;20.90;99.90
59469;DHT22;45277;52.768;18.262;2023-08-01T09:34:43;21.10;99.90
59469;DHT22;45277;52.768;18.262;2023-08-01T09:36:21;21.50;99.90